Topeka, Indiana
Current Conditions -  °F | °C
As of 6:53 PM on Saturday 20 Dec 2014 (Local Time) from KGSH Reporting Station
Haze Haze  
Wind Chill: 31°   Ceiling: 2400
Heat Index: 31°   Visibility: 5mi
Dew Point: 28°   Wind: 0mph
Humidity: 89%   Direction: NA
Pressure: 30.27"   Gusts: NA
Location:  41.54°N, 85.54°W
Report Text: KGSH 202353Z AUTO 00000KT 5SM BR OVC024 M01/M02 A3027 RMK AO2 SLP262 60000 T10061022 10000 21006 51008
Loading
Personal Weather Stations






























Interactive Weather Map New forecast layout! Learn more

10-Day Weather Forecast

Advertisements
Track Severe Weather on mobile